Time;durP1;ratioP1;P1;durP2;ratioP2;P2;SDS_P1;SDS_P2;PMS_P1;PMS_P2;Temp;Humidity;BMP_temperature;BMP_pressure;BME280_temperature;BME280_humidity;BME280_pressure;Samples;Min_cycle;Max_cycle;Signal;HPM_P1;HPM_P2
2022/09/24 00:00:19;;;;;;;6.4;5.8;;;;;;;10.35;64.40137;95064.53;;;;
2022/09/24 00:01:19;;;;;;;6.4;5.8;;;;;;;10.35;64.40137;95064.53;;;;
2022/09/24 00:02:22;;;;;;;6.4;5.8;;;;;;;10.35;64.40137;95064.53;;;;
2022/09/24 00:03:23;;;;;;;6.4;5.8;;;;;;;10.35;64.40137;95064.53;;;;
2022/09/24 00:04:26;;;;;;;6.4;5.8;;;;;;;10.35;64.40137;95064.53;;;;
2022/09/24 00:05:26;;;;;;;7.05;5.349999;;;;;;;10.3;64.69531;95060;;;;
2022/09/24 00:06:27;;;;;;;7.05;5.349999;;;;;;;10.3;64.69531;95060;;;;
2022/09/24 00:07:29;;;;;;;7.05;5.349999;;;;;;;10.3;64.69531;95060;;;;
2022/09/24 00:08:30;;;;;;;7.05;5.349999;;;;;;;10.3;64.69531;95060;;;;
2022/09/24 00:09:32;;;;;;;7.05;5.349999;;;;;;;10.3;64.69531;95060;;;;
2022/09/24 00:10:32;;;;;;;7.05;5.349999;;;;;;;10.3;64.69531;95060;;;;
2022/09/24 00:11:36;;;;;;;7.05;5.349999;;;;;;;10.3;64.69531;95060;;;;
2022/09/24 00:12:37;;;;;;;7.05;5.349999;;;;;;;10.3;64.69531;95060;;;;
2022/09/24 00:13:38;;;;;;;7.05;5.349999;;;;;;;10.3;64.69531;95060;;;;
2022/09/24 00:14:40;;;;;;;7.05;5.349999;;;;;;;10.3;64.69531;95060;;;;
2022/09/24 00:15:40;;;;;;;5.849999;5.25;;;;;;;10.32;64.96777;95048.3;;;;
2022/09/24 00:16:44;;;;;;;5.849999;5.25;;;;;;;10.32;64.96777;95048.3;;;;
2022/09/24 00:17:46;;;;;;;5.849999;5.25;;;;;;;10.32;64.96777;95048.3;;;;
2022/09/24 00:18:46;;;;;;;5.849999;5.25;;;;;;;10.32;64.96777;95048.3;;;;
2022/09/24 00:19:46;;;;;;;5.849999;5.25;;;;;;;10.32;64.96777;95048.3;;;;
2022/09/24 00:20:47;;;;;;;5.849999;5.25;;;;;;;10.32;64.96777;95048.3;;;;
2022/09/24 00:21:47;;;;;;;5.849999;5.25;;;;;;;10.32;64.96777;95048.3;;;;
2022/09/24 00:22:48;;;;;;;5.849999;5.25;;;;;;;10.32;64.96777;95048.3;;;;
2022/09/24 00:23:48;;;;;;;5.849999;5.25;;;;;;;10.32;64.96777;95048.3;;;;
2022/09/24 00:30:04;;;;;;;8.000002;5.35;;;;;;;10.3;65.08496;95051.57;;;;
2022/09/24 00:31:05;;;;;;;8.000002;5.35;;;;;;;10.3;65.08496;95051.57;;;;
2022/09/24 00:32:07;;;;;;;8.000002;5.35;;;;;;;10.3;65.08496;95051.57;;;;
2022/09/24 00:33:07;;;;;;;8.000002;5.35;;;;;;;10.3;65.08496;95051.57;;;;
2022/09/24 00:34:09;;;;;;;8.000002;5.35;;;;;;;10.3;65.08496;95051.57;;;;
2022/09/24 00:35:10;;;;;;;8.000002;5.35;;;;;;;10.3;65.08496;95051.57;;;;
2022/09/24 00:36:10;;;;;;;8.000002;5.35;;;;;;;10.3;65.08496;95051.57;;;;
2022/09/24 00:37:11;;;;;;;6.6;5.299999;;;;;;;10.44;65.29883;95046.97;;;;
2022/09/24 00:38:11;;;;;;;6.6;5.299999;;;;;;;10.44;65.29883;95046.97;;;;
2022/09/24 00:39:12;;;;;;;6.6;5.299999;;;;;;;10.44;65.29883;95046.97;;;;
2022/09/24 00:40:14;;;;;;;6.6;5.299999;;;;;;;10.44;65.29883;95046.97;;;;
2022/09/24 00:41:15;;;;;;;6.6;5.299999;;;;;;;10.44;65.29883;95046.97;;;;
2022/09/24 00:42:16;;;;;;;6.6;5.299999;;;;;;;10.44;65.29883;95046.97;;;;
2022/09/24 00:43:18;;;;;;;6.6;5.299999;;;;;;;10.44;65.29883;95046.97;;;;
2022/09/24 00:44:22;;;;;;;6.6;5.299999;;;;;;;10.44;65.29883;95046.97;;;;
2022/09/24 00:45:48;;;;;;;6.6;5.299999;;;;;;;10.44;65.29883;95046.97;;;;
2022/09/24 00:46:50;;;;;;;6.6;5.299999;;;;;;;10.44;65.29883;95046.97;;;;
2022/09/24 00:47:50;;;;;;;6;4.7;;;;;;;10.53;65.46191;95027.69;;;;
2022/09/24 00:48:52;;;;;;;6;4.7;;;;;;;10.53;65.46191;95027.69;;;;
2022/09/24 00:49:57;;;;;;;6;4.7;;;;;;;10.53;65.46191;95027.69;;;;
2022/09/24 00:51:05;;;;;;;6;4.7;;;;;;;10.53;65.46191;95027.69;;;;
2022/09/24 00:52:08;;;;;;;6;4.7;;;;;;;10.53;65.46191;95027.69;;;;
2022/09/24 00:53:09;;;;;;;6;4.7;;;;;;;10.53;65.46191;95027.69;;;;
2022/09/24 00:54:12;;;;;;;6;4.7;;;;;;;10.53;65.46191;95027.69;;;;
2022/09/24 00:55:18;;;;;;;6;4.7;;;;;;;10.53;65.46191;95027.69;;;;
2022/09/24 00:56:21;;;;;;;6;4.7;;;;;;;10.53;65.46191;95027.69;;;;
2022/09/24 00:57:23;;;;;;;6;4.7;;;;;;;10.53;65.46191;95027.69;;;;
2022/09/24 00:58:25;;;;;;;5.25;4.75;;;;;;;10.57;65.63086;95034.58;;;;
2022/09/24 00:59:27;;;;;;;5.25;4.75;;;;;;;10.57;65.63086;95034.58;;;;
2022/09/24 01:00:30;;;;;;;5.25;4.75;;;;;;;10.57;65.63086;95034.58;;;;
2022/09/24 01:01:31;;;;;;;5.25;4.75;;;;;;;10.57;65.63086;95034.58;;;;
2022/09/24 01:02:32;;;;;;;5.25;4.75;;;;;;;10.57;65.63086;95034.58;;;;
2022/09/24 01:03:37;;;;;;;5.25;4.75;;;;;;;10.57;65.63086;95034.58;;;;
2022/09/24 01:04:40;;;;;;;5.25;4.75;;;;;;;10.57;65.63086;95034.58;;;;
2022/09/24 01:05:40;;;;;;;5.25;4.75;;;;;;;10.57;65.63086;95034.58;;;;
2022/09/24 01:06:42;;;;;;;5.25;4.75;;;;;;;10.57;65.63086;95034.58;;;;
2022/09/24 01:07:42;;;;;;;5.25;4.75;;;;;;;10.57;65.63086;95034.58;;;;
2022/09/24 01:08:43;;;;;;;5.25;4.75;;;;;;;10.57;65.63086;95034.58;;;;
2022/09/24 01:09:44;;;;;;;6.7;4.95;;;;;;;10.49;65.81445;95018.06;;;;
2022/09/24 01:10:48;;;;;;;6.7;4.95;;;;;;;10.49;65.81445;95018.06;;;;
2022/09/24 01:12:06;;;;;;;6.7;4.95;;;;;;;10.49;65.81445;95018.06;;;;
2022/09/24 01:13:16;;;;;;;6.7;4.95;;;;;;;10.49;65.81445;95018.06;;;;
2022/09/24 01:14:33;;;;;;;6.7;4.95;;;;;;;10.49;65.81445;95018.06;;;;
2022/09/24 01:15:47;;;;;;;6.7;4.95;;;;;;;10.49;65.81445;95018.06;;;;
2022/09/24 01:16:56;;;;;;;6.7;4.95;;;;;;;10.49;65.81445;95018.06;;;;
2022/09/24 01:18:07;;;;;;;6.7;4.95;;;;;;;10.49;65.81445;95018.06;;;;
2022/09/24 01:19:17;;;;;;;6.7;4.95;;;;;;;10.49;65.81445;95018.06;;;;
2022/09/24 01:20:40;;;;;;;5.55;4.95;;;;;;;10.46;66.11035;95010.57;;;;
2022/09/24 01:21:55;;;;;;;5.55;4.95;;;;;;;10.46;66.11035;95010.57;;;;
2022/09/24 01:23:00;;;;;;;5.55;4.95;;;;;;;10.46;66.11035;95010.57;;;;
2022/09/24 01:24:16;;;;;;;5.55;4.95;;;;;;;10.46;66.11035;95010.57;;;;
2022/09/24 01:25:35;;;;;;;5.55;4.95;;;;;;;10.46;66.11035;95010.57;;;;
2022/09/24 01:26:45;;;;;;;5.55;4.95;;;;;;;10.46;66.11035;95010.57;;;;
2022/09/24 01:27:56;;;;;;;5.55;4.95;;;;;;;10.46;66.11035;95010.57;;;;
2022/09/24 01:29:12;;;;;;;5.55;4.95;;;;;;;10.46;66.11035;95010.57;;;;
2022/09/24 01:30:31;;;;;;;5.8;4.950001;;;;;;;10.35;66.34277;94999.4;;;;
2022/09/24 01:31:34;;;;;;;5.8;4.950001;;;;;;;10.35;66.34277;94999.4;;;;
2022/09/24 01:32:38;;;;;;;5.8;4.950001;;;;;;;10.35;66.34277;94999.4;;;;
2022/09/24 01:33:44;;;;;;;5.8;4.950001;;;;;;;10.35;66.34277;94999.4;;;;
2022/09/24 01:34:48;;;;;;;5.8;4.950001;;;;;;;10.35;66.34277;94999.4;;;;
2022/09/24 01:35:55;;;;;;;5.8;4.950001;;;;;;;10.35;66.34277;94999.4;;;;
2022/09/24 01:37:02;;;;;;;5.8;4.950001;;;;;;;10.35;66.34277;94999.4;;;;
2022/09/24 01:38:03;;;;;;;5.8;4.950001;;;;;;;10.35;66.34277;94999.4;;;;
2022/09/24 01:39:09;;;;;;;5.8;4.950001;;;;;;;10.35;66.34277;94999.4;;;;
2022/09/24 01:40:11;;;;;;;5.8;4.950001;;;;;;;10.35;66.34277;94999.4;;;;
2022/09/24 01:41:14;;;;;;;6.249999;5.149999;;;;;;;10.3;66.64844;94996.09;;;;
2022/09/24 01:42:17;;;;;;;6.249999;5.149999;;;;;;;10.3;66.64844;94996.09;;;;
2022/09/24 01:43:18;;;;;;;6.249999;5.149999;;;;;;;10.3;66.64844;94996.09;;;;
2022/09/24 01:44:24;;;;;;;6.249999;5.149999;;;;;;;10.3;66.64844;94996.09;;;;
2022/09/24 01:45:29;;;;;;;6.249999;5.149999;;;;;;;10.3;66.64844;94996.09;;;;
2022/09/24 01:46:31;;;;;;;6.249999;5.149999;;;;;;;10.3;66.64844;94996.09;;;;
2022/09/24 01:47:32;;;;;;;6.249999;5.149999;;;;;;;10.3;66.64844;94996.09;;;;
2022/09/24 01:48:36;;;;;;;6.249999;5.149999;;;;;;;10.3;66.64844;94996.09;;;;
2022/09/24 01:49:36;;;;;;;6.249999;5.149999;;;;;;;10.3;66.64844;94996.09;;;;
2022/09/24 01:50:37;;;;;;;6.249999;5.149999;;;;;;;10.3;66.64844;94996.09;;;;
2022/09/24 01:51:47;;;;;;;7.1;5.75;;;;;;;10.23;66.86426;94986.08;;;;
2022/09/24 01:52:51;;;;;;;7.1;5.75;;;;;;;10.23;66.86426;94986.08;;;;
2022/09/24 01:53:56;;;;;;;7.1;5.75;;;;;;;10.23;66.86426;94986.08;;;;
2022/09/24 01:55:00;;;;;;;7.1;5.75;;;;;;;10.23;66.86426;94986.08;;;;
2022/09/24 01:56:05;;;;;;;7.1;5.75;;;;;;;10.23;66.86426;94986.08;;;;
2022/09/24 01:57:12;;;;;;;7.1;5.75;;;;;;;10.23;66.86426;94986.08;;;;
2022/09/24 01:58:21;;;;;;;7.1;5.75;;;;;;;10.23;66.86426;94986.08;;;;
2022/09/24 01:59:29;;;;;;;7.1;5.75;;;;;;;10.23;66.86426;94986.08;;;;
2022/09/24 02:00:36;;;;;;;7.1;5.75;;;;;;;10.23;66.86426;94986.08;;;;
2022/09/24 02:01:41;;;;;;;7.1;5.75;;;;;;;10.23;66.86426;94986.08;;;;
2022/09/24 02:02:47;;;;;;;6.05;5.450001;;;;;;;10.3;67.03418;94975.47;;;;
2022/09/24 02:03:53;;;;;;;6.05;5.450001;;;;;;;10.3;67.03418;94975.47;;;;
2022/09/24 02:04:57;;;;;;;6.05;5.450001;;;;;;;10.3;67.03418;94975.47;;;;
2022/09/24 02:06:02;;;;;;;6.05;5.450001;;;;;;;10.3;67.03418;94975.47;;;;
2022/09/24 02:07:10;;;;;;;6.05;5.450001;;;;;;;10.3;67.03418;94975.47;;;;
2022/09/24 02:08:17;;;;;;;6.05;5.450001;;;;;;;10.3;67.03418;94975.47;;;;
2022/09/24 02:09:21;;;;;;;6.05;5.450001;;;;;;;10.3;67.03418;94975.47;;;;
2022/09/24 02:10:39;;;;;;;6.05;5.450001;;;;;;;10.3;67.03418;94975.47;;;;
2022/09/24 02:11:45;;;;;;;6.05;5.450001;;;;;;;10.3;67.03418;94975.47;;;;
2022/09/24 02:12:51;;;;;;;6.05;5.450001;;;;;;;10.3;67.03418;94975.47;;;;
2022/09/24 02:13:57;;;;;;;5.75;5.15;;;;;;;10.27;67.15918;94963.61;;;;
2022/09/24 02:15:02;;;;;;;5.75;5.15;;;;;;;10.27;67.15918;94963.61;;;;
2022/09/24 02:16:09;;;;;;;5.75;5.15;;;;;;;10.27;67.15918;94963.61;;;;
2022/09/24 02:17:12;;;;;;;5.75;5.15;;;;;;;10.27;67.15918;94963.61;;;;
2022/09/24 02:18:13;;;;;;;5.75;5.15;;;;;;;10.27;67.15918;94963.61;;;;
2022/09/24 02:19:19;;;;;;;5.75;5.15;;;;;;;10.27;67.15918;94963.61;;;;
2022/09/24 02:20:25;;;;;;;5.75;5.15;;;;;;;10.27;67.15918;94963.61;;;;
2022/09/24 02:21:28;;;;;;;5.75;5.15;;;;;;;10.27;67.15918;94963.61;;;;
2022/09/24 02:22:31;;;;;;;5.75;5.15;;;;;;;10.27;67.15918;94963.61;;;;
2022/09/24 02:23:32;;;;;;;5.75;5.15;;;;;;;10.27;67.15918;94963.61;;;;
2022/09/24 02:24:36;;;;;;;5.8;5.199999;;;;;;;10.29;67.45313;94948.36;;;;
2022/09/24 02:25:46;;;;;;;5.8;5.199999;;;;;;;10.29;67.45313;94948.36;;;;
2022/09/24 02:26:51;;;;;;;5.8;5.199999;;;;;;;10.29;67.45313;94948.36;;;;
2022/09/24 02:27:52;;;;;;;5.8;5.199999;;;;;;;10.29;67.45313;94948.36;;;;
2022/09/24 02:28:53;;;;;;;5.8;5.199999;;;;;;;10.29;67.45313;94948.36;;;;
2022/09/24 02:29:54;;;;;;;5.8;5.199999;;;;;;;10.29;67.45313;94948.36;;;;
2022/09/24 02:30:54;;;;;;;5.8;5.199999;;;;;;;10.29;67.45313;94948.36;;;;
2022/09/24 02:32:01;;;;;;;5.8;5.199999;;;;;;;10.29;67.45313;94948.36;;;;
2022/09/24 02:34:19;;;;;;;5.8;5.199999;;;;;;;10.29;67.45313;94948.36;;;;
2022/09/24 02:35:25;;;;;;;5.450001;4.950001;;;;;;;10.36;67.55078;94952.53;;;;
2022/09/24 02:36:26;;;;;;;5.450001;4.950001;;;;;;;10.36;67.55078;94952.53;;;;
2022/09/24 02:37:27;;;;;;;5.450001;4.950001;;;;;;;10.36;67.55078;94952.53;;;;
2022/09/24 02:38:28;;;;;;;5.450001;4.950001;;;;;;;10.36;67.55078;94952.53;;;;
2022/09/24 02:39:29;;;;;;;5.450001;4.950001;;;;;;;10.36;67.55078;94952.53;;;;
2022/09/24 02:40:30;;;;;;;5.450001;4.950001;;;;;;;10.36;67.55078;94952.53;;;;
2022/09/24 02:41:30;;;;;;;5.450001;4.950001;;;;;;;10.36;67.55078;94952.53;;;;
2022/09/24 02:42:32;;;;;;;5.450001;4.950001;;;;;;;10.36;67.55078;94952.53;;;;
2022/09/24 02:43:34;;;;;;;5.450001;4.950001;;;;;;;10.36;67.55078;94952.53;;;;
2022/09/24 02:44:35;;;;;;;5.450001;4.950001;;;;;;;10.36;67.55078;94952.53;;;;
2022/09/24 02:45:35;;;;;;;7.45;5.25;;;;;;;10.49;67.60352;94934.81;;;;
2022/09/24 02:46:37;;;;;;;7.45;5.25;;;;;;;10.49;67.60352;94934.81;;;;
2022/09/24 02:47:38;;;;;;;7.45;5.25;;;;;;;10.49;67.60352;94934.81;;;;
2022/09/24 02:48:39;;;;;;;7.45;5.25;;;;;;;10.49;67.60352;94934.81;;;;
2022/09/24 02:49:39;;;;;;;7.45;5.25;;;;;;;10.49;67.60352;94934.81;;;;
2022/09/24 02:50:40;;;;;;;7.45;5.25;;;;;;;10.49;67.60352;94934.81;;;;
2022/09/24 02:51:41;;;;;;;7.45;5.25;;;;;;;10.49;67.60352;94934.81;;;;
2022/09/24 02:52:43;;;;;;;7.45;5.25;;;;;;;10.49;67.60352;94934.81;;;;
2022/09/24 02:53:43;;;;;;;7.45;5.25;;;;;;;10.49;67.60352;94934.81;;;;
2022/09/24 02:54:44;;;;;;;7.45;5.25;;;;;;;10.49;67.60352;94934.81;;;;
2022/09/24 02:55:44;;;;;;;5.75;5.25;;;;;;;10.35;67.75488;94939.45;;;;
2022/09/24 02:56:45;;;;;;;5.75;5.25;;;;;;;10.35;67.75488;94939.45;;;;
2022/09/24 02:57:46;;;;;;;5.75;5.25;;;;;;;10.35;67.75488;94939.45;;;;
2022/09/24 02:58:47;;;;;;;5.75;5.25;;;;;;;10.35;67.75488;94939.45;;;;
2022/09/24 02:59:47;;;;;;;5.75;5.25;;;;;;;10.35;67.75488;94939.45;;;;
2022/09/24 03:00:48;;;;;;;5.75;5.25;;;;;;;10.35;67.75488;94939.45;;;;
2022/09/24 03:01:48;;;;;;;5.75;5.25;;;;;;;10.35;67.75488;94939.45;;;;
2022/09/24 03:02:49;;;;;;;5.75;5.25;;;;;;;10.35;67.75488;94939.45;;;;
2022/09/24 03:03:49;;;;;;;5.75;5.25;;;;;;;10.35;67.75488;94939.45;;;;
2022/09/24 03:04:50;;;;;;;5.75;5.25;;;;;;;10.35;67.75488;94939.45;;;;
2022/09/24 03:05:53;;;;;;;5.75;5.25;;;;;;;10.35;67.75488;94939.45;;;;
2022/09/24 03:06:54;;;;;;;6.65;5.2;;;;;;;10.25;68.08203;94933.95;;;;
2022/09/24 03:07:56;;;;;;;6.65;5.2;;;;;;;10.25;68.08203;94933.95;;;;
2022/09/24 03:08:56;;;;;;;6.65;5.2;;;;;;;10.25;68.08203;94933.95;;;;
2022/09/24 03:09:58;;;;;;;6.65;5.2;;;;;;;10.25;68.08203;94933.95;;;;
2022/09/24 03:10:59;;;;;;;6.65;5.2;;;;;;;10.25;68.08203;94933.95;;;;
2022/09/24 03:11:59;;;;;;;6.65;5.2;;;;;;;10.25;68.08203;94933.95;;;;
2022/09/24 03:13:00;;;;;;;6.65;5.2;;;;;;;10.25;68.08203;94933.95;;;;
2022/09/24 03:14:01;;;;;;;6.65;5.2;;;;;;;10.25;68.08203;94933.95;;;;
2022/09/24 03:15:01;;;;;;;6.65;5.2;;;;;;;10.25;68.08203;94933.95;;;;
2022/09/24 03:16:02;;;;;;;6.65;5.2;;;;;;;10.25;68.08203;94933.95;;;;
2022/09/24 03:17:04;;;;;;;7.55;5.550001;;;;;;;10.11;68.25488;94937.25;;;;
2022/09/24 03:18:04;;;;;;;7.55;5.550001;;;;;;;10.11;68.25488;94937.25;;;;
2022/09/24 03:19:05;;;;;;;7.55;5.550001;;;;;;;10.11;68.25488;94937.25;;;;
2022/09/24 03:20:06;;;;;;;7.55;5.550001;;;;;;;10.11;68.25488;94937.25;;;;
2022/09/24 03:21:07;;;;;;;7.55;5.550001;;;;;;;10.11;68.25488;94937.25;;;;
2022/09/24 03:22:10;;;;;;;7.55;5.550001;;;;;;;10.11;68.25488;94937.25;;;;
2022/09/24 03:23:11;;;;;;;7.55;5.550001;;;;;;;10.11;68.25488;94937.25;;;;
2022/09/24 03:24:11;;;;;;;7.55;5.550001;;;;;;;10.11;68.25488;94937.25;;;;
2022/09/24 03:25:12;;;;;;;7.55;5.550001;;;;;;;10.11;68.25488;94937.25;;;;
2022/09/24 03:26:12;;;;;;;7.55;5.550001;;;;;;;10.11;68.25488;94937.25;;;;
2022/09/24 03:27:13;;;;;;;7.55;5.550001;;;;;;;10.11;68.25488;94937.25;;;;
2022/09/24 03:28:14;;;;;;;7.55;5.550001;;;;;;;10.11;68.25488;94937.25;;;;
2022/09/24 03:29:14;;;;;;;7.55;5.550001;;;;;;;10.11;68.25488;94937.25;;;;
2022/09/24 03:31:23;;;;;;;7.55;5.550001;;;;;;;10.11;68.25488;94937.25;;;;
2022/09/24 03:32:23;;;;;;;7.55;5.550001;;;;;;;10.11;68.25488;94937.25;;;;
2022/09/24 03:33:23;;;;;;;7.55;5.550001;;;;;;;10.11;68.25488;94937.25;;;;
2022/09/24 03:34:24;;;;;;;7.55;5.550001;;;;;;;10.11;68.25488;94937.25;;;;
2022/09/24 03:35:25;;;;;;;7.55;5.550001;;;;;;;10.11;68.25488;94937.25;;;;
2022/09/24 03:36:26;;;;;;;7.55;5.550001;;;;;;;10.11;68.25488;94937.25;;;;
2022/09/24 03:37:26;;;;;;;7.55;5.550001;;;;;;;10.11;68.25488;94937.25;;;;
2022/09/24 03:38:27;;;;;;;6;5;;;;;;;10.22;68.55273;94929.02;;;;
2022/09/24 03:39:28;;;;;;;6;5;;;;;;;10.22;68.55273;94929.02;;;;
2022/09/24 03:40:28;;;;;;;6;5;;;;;;;10.22;68.55273;94929.02;;;;
2022/09/24 03:41:29;;;;;;;6;5;;;;;;;10.22;68.55273;94929.02;;;;
2022/09/24 03:42:29;;;;;;;6;5;;;;;;;10.22;68.55273;94929.02;;;;
2022/09/24 03:43:30;;;;;;;6;5;;;;;;;10.22;68.55273;94929.02;;;;
2022/09/24 03:44:31;;;;;;;6;5;;;;;;;10.22;68.55273;94929.02;;;;
2022/09/24 03:45:32;;;;;;;6;5;;;;;;;10.22;68.55273;94929.02;;;;
2022/09/24 03:46:32;;;;;;;6;5;;;;;;;10.22;68.55273;94929.02;;;;
2022/09/24 03:47:33;;;;;;;6;5;;;;;;;10.22;68.55273;94929.02;;;;
2022/09/24 03:48:33;;;;;;;6;5;;;;;;;10.22;68.55273;94929.02;;;;
2022/09/24 03:49:35;;;;;;;6.299999;5.2;;;;;;;10.41;68.74414;94936.43;;;;
2022/09/24 03:50:36;;;;;;;6.299999;5.2;;;;;;;10.41;68.74414;94936.43;;;;
2022/09/24 03:51:37;;;;;;;6.299999;5.2;;;;;;;10.41;68.74414;94936.43;;;;
2022/09/24 03:52:37;;;;;;;6.299999;5.2;;;;;;;10.41;68.74414;94936.43;;;;
2022/09/24 03:53:38;;;;;;;6.299999;5.2;;;;;;;10.41;68.74414;94936.43;;;;
2022/09/24 03:54:39;;;;;;;6.299999;5.2;;;;;;;10.41;68.74414;94936.43;;;;
2022/09/24 03:55:39;;;;;;;6.299999;5.2;;;;;;;10.41;68.74414;94936.43;;;;
2022/09/24 03:56:42;;;;;;;6.299999;5.2;;;;;;;10.41;68.74414;94936.43;;;;
2022/09/24 03:57:42;;;;;;;6.299999;5.2;;;;;;;10.41;68.74414;94936.43;;;;
2022/09/24 03:58:46;;;;;;;6.299999;5.2;;;;;;;10.41;68.74414;94936.43;;;;
2022/09/24 03:59:46;;;;;;;5.750001;5.15;;;;;;;10.55;68.7334;94918.11;;;;
2022/09/24 04:00:47;;;;;;;5.750001;5.15;;;;;;;10.55;68.7334;94918.11;;;;
2022/09/24 04:01:47;;;;;;;5.750001;5.15;;;;;;;10.55;68.7334;94918.11;;;;
2022/09/24 04:02:48;;;;;;;5.750001;5.15;;;;;;;10.55;68.7334;94918.11;;;;
2022/09/24 04:03:48;;;;;;;5.750001;5.15;;;;;;;10.55;68.7334;94918.11;;;;
2022/09/24 04:04:49;;;;;;;5.750001;5.15;;;;;;;10.55;68.7334;94918.11;;;;
2022/09/24 04:05:50;;;;;;;5.750001;5.15;;;;;;;10.55;68.7334;94918.11;;;;
2022/09/24 04:06:51;;;;;;;5.750001;5.15;;;;;;;10.55;68.7334;94918.11;;;;
2022/09/24 04:07:52;;;;;;;5.750001;5.15;;;;;;;10.55;68.7334;94918.11;;;;
2022/09/24 04:08:52;;;;;;;5.750001;5.15;;;;;;;10.55;68.7334;94918.11;;;;
2022/09/24 04:09:53;;;;;;;5.750001;5.15;;;;;;;10.55;68.7334;94918.11;;;;
2022/09/24 04:10:54;;;;;;;6.2;5.1;;;;;;;10.75;68.87207;94909.41;;;;
2022/09/24 04:11:55;;;;;;;6.2;5.1;;;;;;;10.75;68.87207;94909.41;;;;
2022/09/24 04:12:55;;;;;;;6.2;5.1;;;;;;;10.75;68.87207;94909.41;;;;
2022/09/24 04:13:58;;;;;;;6.2;5.1;;;;;;;10.75;68.87207;94909.41;;;;
2022/09/24 04:15:01;;;;;;;6.2;5.1;;;;;;;10.75;68.87207;94909.41;;;;
2022/09/24 04:16:02;;;;;;;6.2;5.1;;;;;;;10.75;68.87207;94909.41;;;;
2022/09/24 04:17:03;;;;;;;6.2;5.1;;;;;;;10.75;68.87207;94909.41;;;;
2022/09/24 04:18:04;;;;;;;6.2;5.1;;;;;;;10.75;68.87207;94909.41;;;;
2022/09/24 04:19:06;;;;;;;6.2;5.1;;;;;;;10.75;68.87207;94909.41;;;;
2022/09/24 04:20:07;;;;;;;6.2;5.1;;;;;;;10.75;68.87207;94909.41;;;;
2022/09/24 04:21:08;;;;;;;5.85;5.000001;;;;;;;10.87;68.8916;94896.26;;;;
2022/09/24 04:22:09;;;;;;;5.85;5.000001;;;;;;;10.87;68.8916;94896.26;;;;
2022/09/24 04:23:10;;;;;;;5.85;5.000001;;;;;;;10.87;68.8916;94896.26;;;;
2022/09/24 04:24:10;;;;;;;5.85;5.000001;;;;;;;10.87;68.8916;94896.26;;;;
2022/09/24 04:25:11;;;;;;;5.85;5.000001;;;;;;;10.87;68.8916;94896.26;;;;
2022/09/24 04:26:12;;;;;;;5.85;5.000001;;;;;;;10.87;68.8916;94896.26;;;;
2022/09/24 04:27:12;;;;;;;5.85;5.000001;;;;;;;10.87;68.8916;94896.26;;;;
2022/09/24 04:28:13;;;;;;;5.85;5.000001;;;;;;;10.87;68.8916;94896.26;;;;
2022/09/24 04:29:13;;;;;;;5.85;5.000001;;;;;;;10.87;68.8916;94896.26;;;;
2022/09/24 04:30:14;;;;;;;5.85;5.000001;;;;;;;10.87;68.8916;94896.26;;;;
2022/09/24 04:31:14;;;;;;;5.85;5.000001;;;;;;;10.87;68.8916;94896.26;;;;
2022/09/24 04:32:15;;;;;;;7.3;5.4;;;;;;;11.01;69.08496;94896.36;;;;
2022/09/24 04:33:15;;;;;;;7.3;5.4;;;;;;;11.01;69.08496;94896.36;;;;
2022/09/24 04:34:16;;;;;;;7.3;5.4;;;;;;;11.01;69.08496;94896.36;;;;
2022/09/24 04:35:17;;;;;;;7.3;5.4;;;;;;;11.01;69.08496;94896.36;;;;
2022/09/24 04:36:18;;;;;;;7.3;5.4;;;;;;;11.01;69.08496;94896.36;;;;
2022/09/24 04:37:19;;;;;;;7.3;5.4;;;;;;;11.01;69.08496;94896.36;;;;
2022/09/24 04:38:20;;;;;;;7.3;5.4;;;;;;;11.01;69.08496;94896.36;;;;
2022/09/24 04:39:25;;;;;;;7.3;5.4;;;;;;;11.01;69.08496;94896.36;;;;
2022/09/24 04:40:25;;;;;;;7.3;5.4;;;;;;;11.01;69.08496;94896.36;;;;
2022/09/24 04:41:27;;;;;;;7.3;5.4;;;;;;;11.01;69.08496;94896.36;;;;
2022/09/24 04:42:27;;;;;;;7.900001;5.5;;;;;;;11.07;69.2041;94903.43;;;;
2022/09/24 04:43:28;;;;;;;7.900001;5.5;;;;;;;11.07;69.2041;94903.43;;;;
2022/09/24 04:44:29;;;;;;;7.900001;5.5;;;;;;;11.07;69.2041;94903.43;;;;
2022/09/24 04:45:29;;;;;;;7.900001;5.5;;;;;;;11.07;69.2041;94903.43;;;;
2022/09/24 04:46:32;;;;;;;7.900001;5.5;;;;;;;11.07;69.2041;94903.43;;;;
2022/09/24 04:47:32;;;;;;;7.900001;5.5;;;;;;;11.07;69.2041;94903.43;;;;
2022/09/24 04:48:35;;;;;;;7.900001;5.5;;;;;;;11.07;69.2041;94903.43;;;;
2022/09/24 04:49:35;;;;;;;7.900001;5.5;;;;;;;11.07;69.2041;94903.43;;;;
2022/09/24 04:50:37;;;;;;;7.900001;5.5;;;;;;;11.07;69.2041;94903.43;;;;
2022/09/24 04:51:37;;;;;;;7.900001;5.5;;;;;;;11.07;69.2041;94903.43;;;;
2022/09/24 04:52:38;;;;;;;7.900001;5.5;;;;;;;11.07;69.2041;94903.43;;;;
2022/09/24 04:53:39;;;;;;;5.95;5.25;;;;;;;11.18;69.37305;94898.19;;;;
2022/09/24 04:54:40;;;;;;;5.95;5.25;;;;;;;11.18;69.37305;94898.19;;;;
2022/09/24 04:55:41;;;;;;;5.95;5.25;;;;;;;11.18;69.37305;94898.19;;;;
2022/09/24 04:56:41;;;;;;;5.95;5.25;;;;;;;11.18;69.37305;94898.19;;;;
2022/09/24 04:57:44;;;;;;;5.95;5.25;;;;;;;11.18;69.37305;94898.19;;;;
2022/09/24 04:58:45;;;;;;;5.95;5.25;;;;;;;11.18;69.37305;94898.19;;;;
2022/09/24 04:59:49;;;;;;;5.95;5.25;;;;;;;11.18;69.37305;94898.19;;;;
2022/09/24 05:00:50;;;;;;;5.95;5.25;;;;;;;11.18;69.37305;94898.19;;;;
2022/09/24 05:01:53;;;;;;;5.95;5.25;;;;;;;11.18;69.37305;94898.19;;;;
2022/09/24 05:02:53;;;;;;;5.95;5.25;;;;;;;11.18;69.37305;94898.19;;;;
2022/09/24 05:03:56;;;;;;;5.45;4.950001;;;;;;;11.22;69.48535;94887.02;;;;
2022/09/24 05:04:57;;;;;;;5.45;4.950001;;;;;;;11.22;69.48535;94887.02;;;;
2022/09/24 05:05:57;;;;;;;5.45;4.950001;;;;;;;11.22;69.48535;94887.02;;;;
2022/09/24 05:06:58;;;;;;;5.45;4.950001;;;;;;;11.22;69.48535;94887.02;;;;
2022/09/24 05:07:59;;;;;;;5.45;4.950001;;;;;;;11.22;69.48535;94887.02;;;;
2022/09/24 05:09:00;;;;;;;5.45;4.950001;;;;;;;11.22;69.48535;94887.02;;;;
2022/09/24 05:10:00;;;;;;;5.45;4.950001;;;;;;;11.22;69.48535;94887.02;;;;
2022/09/24 05:11:01;;;;;;;5.45;4.950001;;;;;;;11.22;69.48535;94887.02;;;;
2022/09/24 05:12:02;;;;;;;5.45;4.950001;;;;;;;11.22;69.48535;94887.02;;;;
2022/09/24 05:13:04;;;;;;;5.45;4.950001;;;;;;;11.22;69.48535;94887.02;;;;
2022/09/24 05:14:05;;;;;;;5.45;4.950001;;;;;;;11.22;69.48535;94887.02;;;;
2022/09/24 05:15:05;;;;;;;5.75;5.05;;;;;;;11.32;69.69824;94875.79;;;;
2022/09/24 05:16:06;;;;;;;5.75;5.05;;;;;;;11.32;69.69824;94875.79;;;;
2022/09/24 05:17:07;;;;;;;5.75;5.05;;;;;;;11.32;69.69824;94875.79;;;;
2022/09/24 05:18:07;;;;;;;5.75;5.05;;;;;;;11.32;69.69824;94875.79;;;;
2022/09/24 05:19:08;;;;;;;5.75;5.05;;;;;;;11.32;69.69824;94875.79;;;;
2022/09/24 05:20:10;;;;;;;5.75;5.05;;;;;;;11.32;69.69824;94875.79;;;;
2022/09/24 05:21:10;;;;;;;5.75;5.05;;;;;;;11.32;69.69824;94875.79;;;;
2022/09/24 05:22:11;;;;;;;5.75;5.05;;;;;;;11.32;69.69824;94875.79;;;;
2022/09/24 05:23:11;;;;;;;5.75;5.05;;;;;;;11.32;69.69824;94875.79;;;;
2022/09/24 05:24:12;;;;;;;5.75;5.05;;;;;;;11.32;69.69824;94875.79;;;;
2022/09/24 05:25:12;;;;;;;6.75;5.500001;;;;;;;11.34;69.81836;94880.44;;;;
2022/09/24 05:27:20;;;;;;;6.75;5.500001;;;;;;;11.34;69.81836;94880.44;;;;
2022/09/24 05:28:21;;;;;;;6.75;5.500001;;;;;;;11.34;69.81836;94880.44;;;;
2022/09/24 05:29:21;;;;;;;6.75;5.500001;;;;;;;11.34;69.81836;94880.44;;;;
2022/09/24 05:30:22;;;;;;;6.75;5.500001;;;;;;;11.34;69.81836;94880.44;;;;
2022/09/24 05:31:23;;;;;;;6.75;5.500001;;;;;;;11.34;69.81836;94880.44;;;;
2022/09/24 05:32:24;;;;;;;6.75;5.500001;;;;;;;11.34;69.81836;94880.44;;;;
2022/09/24 05:33:25;;;;;;;6.75;5.500001;;;;;;;11.34;69.81836;94880.44;;;;
2022/09/24 05:34:25;;;;;;;6.75;5.500001;;;;;;;11.34;69.81836;94880.44;;;;
2022/09/24 05:35:26;;;;;;;6.75;5.500001;;;;;;;11.34;69.81836;94880.44;;;;
2022/09/24 05:36:26;;;;;;;6.75;5.500001;;;;;;;11.34;69.81836;94880.44;;;;
2022/09/24 05:37:26;;;;;;;6.75;5.500001;;;;;;;11.34;69.81836;94880.44;;;;
2022/09/24 05:38:28;;;;;;;6.75;5.500001;;;;;;;11.34;69.81836;94880.44;;;;
2022/09/24 05:39:29;;;;;;;6.75;5.500001;;;;;;;11.34;69.81836;94880.44;;;;
2022/09/24 05:41:02;;;;;;;6.75;5.500001;;;;;;;11.34;69.81836;94880.44;;;;
2022/09/24 05:42:03;;;;;;;6.75;5.500001;;;;;;;11.34;69.81836;94880.44;;;;
2022/09/24 05:43:03;;;;;;;6.75;5.500001;;;;;;;11.34;69.81836;94880.44;;;;
2022/09/24 05:44:04;;;;;;;6.75;5.500001;;;;;;;11.34;69.81836;94880.44;;;;
2022/09/24 05:45:05;;;;;;;6.75;5.500001;;;;;;;11.34;69.81836;94880.44;;;;
2022/09/24 05:46:06;;;;;;;6.75;5.500001;;;;;;;11.34;69.81836;94880.44;;;;
2022/09/24 05:47:07;;;;;;;6.150001;5.25;;;;;;;11.51;70.09375;94885.8;;;;
2022/09/24 05:48:07;;;;;;;6.150001;5.25;;;;;;;11.51;70.09375;94885.8;;;;
2022/09/24 05:49:08;;;;;;;6.150001;5.25;;;;;;;11.51;70.09375;94885.8;;;;
2022/09/24 05:50:08;;;;;;;6.150001;5.25;;;;;;;11.51;70.09375;94885.8;;;;
2022/09/24 05:51:09;;;;;;;6.150001;5.25;;;;;;;11.51;70.09375;94885.8;;;;
2022/09/24 05:52:09;;;;;;;6.150001;5.25;;;;;;;11.51;70.09375;94885.8;;;;
2022/09/24 05:53:10;;;;;;;6.150001;5.25;;;;;;;11.51;70.09375;94885.8;;;;
2022/09/24 05:54:10;;;;;;;6.150001;5.25;;;;;;;11.51;70.09375;94885.8;;;;
2022/09/24 05:55:11;;;;;;;6.150001;5.25;;;;;;;11.51;70.09375;94885.8;;;;